Tylertown, MS (39667)

4:35 PM CST on December 04, 2016 (GMT -0600)
Smithburg Rd | | Change Station

Elev 300 ft 31.03 °N, 90.28 °W | Updated 4 minutes ago

Light Rain
Light Rain
56.9 °F
Feels Like 56.9 °F
N
2.0
Wind Variable Wind from NE
Gusts 3.0 mph

Today
High -- | Low -- °F
--% Chance of Precip.
Yesterday
High -- | Low -- °F
Precip. -- in
Pressure 29.96 in
Visibility 9.0 miles
Clouds Overcast 600 ft
Dew Point 56 °F
Humidity 98%
Rainfall 0.54 in
Snow Depth Not available.
6:44 AM 4:57 PM
Waxing Crescent, 26% visible
METAR KMCB 042153Z AUTO 34010KT 9SM -RA OVC006 14/12 A2996 RMK AO2 SLP144 P0003 T01390122
Pressure 29.96 in
Visibility 9.0 miles
Clouds Overcast 600 ft
Dew Point 56 °F
Humidity 98%
Rainfall 0.54 in
Snow Depth Not available.
6:44 AM 4:57 PM
Waxing Crescent, 26% visible
METAR KMCB 042153Z AUTO 34010KT 9SM -RA OVC006 14/12 A2996 RMK AO2 SLP144 P0003 T01390122

10-Day Weather Forecast

Almanac

Astronomy

Dec. 04, 2016 Rise Set
Actual Time
Civil Twilight
Nautical Twilight
Astronomical Twilight
Moon
Length of Visible Light
Length of Day
Tomorrow will be .
, % of the Moon is Illuminated

Today's Extremes

State Highs State Lows

Community

WunderPhotos

Upload Photos

1,955,685 photos uploaded!

WunderBlog® & News

Nearby

Air Quality

  Air Quality AQ Index Pollutant
Not available.

Snow Depth

Station Depth Elevation

Earthquake Activity

City Distance Mag. Time & Date
Minimum magnitude displayed is 2.5.

Coastal Water Temperatures

Place Temperature

Stations

Nearby Weather Stations

Station Location Temp. Windchill Dew Point Humidity Wind Precip. Elev Updated Type
                   

Watches & Warnings

There are currently no watches in effect.